Ten'yo — JBBC — position and weather

sailwx.info

Track history (hours):
 
Tides and Currents Weather Stations Pressure Air Temp Water Temp Dewpoint Dewpoint Depression Visibility Wind Speed Wind Dir Waves Ship Positions

Oceanographic research ship Ten'yo (Japan)

Detailed information on ship capabilities available from University of Delaware's Ocean Information Center.

Last reported at 2015-Jul-21 05:33 UTC. Time now 2015-Jul-30 08:11 UTC.
Position N 35°38' E 139°47'.
Warning: this ship's position is 9 days out of date.

Length 56 m; draft 3.6 m.

Type: Other ship. MMSI: 431100350.

Date/timePositionNaut miles runAvg speedWind from/ knotsBaromVisibWave heightAir tempDewpointWater temp
2015-Jul-21 05:33N 35°38' E 139°47'5 5.0
2015-Jul-21 04:34N 35°34' E 139°50'8 8.3
2015-Jul-21 03:34N 35°25' E 139°48'9 9.2
2015-Jul-21 02:33N 35°16' E 139°46'1210.5
2015-Jul-21 01:27N 35°05' E 139°46'9 9.7
2015-Jul-21 00:34N 34°56' E 139°45'16 7.5
2015-Jul-20 22:29N 34°54' E 140°03'4310.9
2015-Jul-20 18:32N 35°24' E 140°41'1310.6
2015-Jul-20 17:21N 35°33' E 140°52'1010.5
2015-Jul-20 16:26N 35°41' E 140°58'910.1
2015-Jul-20 15:33N 35°50' E 141°00'1111.2
2015-Jul-20 14:34N 36°01' E 140°58'1111.2
2015-Jul-20 13:34N 36°12' E 140°59'  
Track history (hours):
 
Tides and Currents Weather Stations Pressure Air Temp Water Temp Dewpoint Dewpoint Depression Visibility Wind Speed Wind Dir Waves Ship Positions

Oceanographic research ship Ten'yo (Japan)

Detailed information on ship capabilities available from University of Delaware's Ocean Information Center.

Last reported at 2015-Jul-21 05:33 UTC. Time now 2015-Jul-30 08:11 UTC.
Position N 35°38' E 139°47'.
Warning: this ship's position is 9 days out of date.

Length 56 m; draft 3.6 m.

Type: Other ship. MMSI: 431100350.

Date/timePositionNaut miles runAvg speedWind from/ knotsBaromVisibWave heightAir tempDewpointWater temp
2015-Jul-21 05:33N 35°38' E 139°47'5 5.0
2015-Jul-21 04:34N 35°34' E 139°50'8 8.3
2015-Jul-21 03:34N 35°25' E 139°48'9 9.2
2015-Jul-21 02:33N 35°16' E 139°46'1210.5
2015-Jul-21 01:27N 35°05' E 139°46'9 9.7
2015-Jul-21 00:34N 34°56' E 139°45'16 7.5
2015-Jul-20 22:29N 34°54' E 140°03'4310.9
2015-Jul-20 18:32N 35°24' E 140°41'1310.6
2015-Jul-20 17:21N 35°33' E 140°52'1010.5
2015-Jul-20 16:26N 35°41' E 140°58'910.1
2015-Jul-20 15:33N 35°50' E 141°00'1111.2
2015-Jul-20 14:34N 36°01' E 140°58'1111.2
2015-Jul-20 13:34N 36°12' E 140°59'  

Dump ship's entire track history